Time;durP1;ratioP1;P1;durP2;ratioP2;P2;SDS_P1;SDS_P2;PMS_P1;PMS_P2;Temp;Humidity;BMP_temperature;BMP_pressure;BME280_temperature;BME280_humidity;BME280_pressure;Samples;Min_cycle;Max_cycle;Signal;HPM_P1;HPM_P2
2022/04/14 00:00:10;;;;;;;13.18;8.20;;;16.70;95.40;;;17.35;100.00;100487.63;5029308;28;20137;-78
2022/04/14 00:02:37;;;;;;;14.88;8.85;;;16.70;95.70;;;17.35;100.00;100492.94;5030143;28;20045;-78
2022/04/14 00:05:06;;;;;;;12.40;8.40;;;16.70;95.90;;;17.27;100.00;100485.34;5029172;28;20145;-78
2022/04/14 00:07:33;;;;;;;16.48;9.38;;;16.60;95.80;;;17.20;100.00;100488.41;5032443;28;20108;-76
2022/04/14 00:10:00;;;;;;;13.82;8.25;;;16.60;96.10;;;17.15;100.00;100485.97;5031178;28;20544;-76
2022/04/14 00:12:27;;;;;;;12.32;7.63;;;16.60;96.20;;;17.12;100.00;100486.97;5032170;28;20052;-79
2022/04/14 00:14:55;;;;;;;13.35;8.65;;;16.60;95.90;;;16.91;100.00;100488.84;4998996;28;20875;-77
2022/04/14 00:17:22;;;;;;;14.65;9.50;;;18.00;96.50;;;16.93;100.00;100479.00;5015298;28;20060;-78
2022/04/14 00:19:49;;;;;;;14.77;8.35;;;16.40;96.00;;;16.87;100.00;100488.16;5007050;28;20045;-78
2022/04/14 00:22:16;;;;;;;12.27;8.30;;;16.30;96.10;;;16.77;100.00;100496.63;4995717;28;20053;-79
2022/04/14 00:24:43;;;;;;;12.73;8.88;;;16.30;96.40;;;16.70;100.00;100502.25;4995957;28;20419;-79
2022/04/14 00:27:10;;;;;;;14.52;8.77;;;16.30;96.60;;;16.80;100.00;100504.47;5029151;28;20518;-79
2022/04/14 00:29:38;;;;;;;15.55;9.60;;;16.30;96.90;;;16.72;100.00;100494.22;5012384;28;20053;-77
2022/04/14 00:32:05;;;;;;;14.18;9.30;;;16.20;96.60;;;16.75;100.00;100503.81;5011867;28;20694;-77
2022/04/14 00:34:32;;;;;;;11.77;8.68;;;16.20;96.80;;;16.82;100.00;100500.78;5011455;28;20046;-78
2022/04/14 00:36:59;;;;;;;14.65;9.80;;;16.20;96.90;;;16.75;100.00;100510.00;5028163;28;20129;-79
2022/04/14 00:39:26;;;;;;;16.25;9.85;;;16.40;96.90;;;16.68;100.00;100509.44;5010981;28;20044;-78
2022/04/14 00:41:53;;;;;;;13.45;10.13;;;16.10;97.00;;;16.75;100.00;100506.47;5011813;28;20042;-78
2022/04/14 00:44:20;;;;;;;15.75;11.15;;;16.10;97.20;;;16.74;100.00;100510.94;5011543;28;20072;-79
2022/04/14 00:46:48;;;;;;;15.40;10.48;;;16.10;97.90;;;16.73;100.00;100512.72;5012526;28;20057;-77
2022/04/14 00:49:15;;;;;;;13.57;10.85;;;16.10;98.00;;;16.78;100.00;100509.84;5014485;28;20049;-78
2022/04/14 00:51:42;;;;;;;16.17;11.20;;;16.20;97.80;;;16.71;100.00;100517.25;5031454;28;20045;-79
2022/04/14 00:54:09;;;;;;;15.18;11.23;;;16.10;97.90;;;16.67;100.00;100518.34;5030662;28;20037;-78
2022/04/14 00:56:36;;;;;;;15.35;11.63;;;16.10;97.90;;;16.69;100.00;100516.47;5031333;28;20071;-78
2022/04/14 00:59:03;;;;;;;18.20;11.43;;;16.00;97.70;;;16.67;100.00;100517.47;5013673;28;20053;-78
2022/04/14 01:01:30;;;;;;;17.95;12.75;;;16.00;98.30;;;16.69;100.00;100521.78;5031144;28;20045;-78
2022/04/14 01:03:59;;;;;;;15.60;12.50;;;16.80;98.90;;;16.67;100.00;100522.78;4998702;28;20041;-79
2022/04/14 01:06:27;;;;;;;13.20;10.38;;;16.00;98.40;;;16.63;100.00;100531.81;5032228;28;20061;-78
2022/04/14 01:11:40;;;;;;;19.75;13.52;;;16.00;98.50;;;16.62;100.00;100536.25;5031271;28;20045;-78
2022/04/14 01:14:07;;;;;;;18.25;15.15;;;16.10;99.00;;;16.56;100.00;100541.88;5030825;28;20046;-78
2022/04/14 01:16:34;;;;;;;21.90;15.55;;;16.00;99.00;;;16.56;100.00;100540.09;5032199;28;20557;-78
2022/04/14 01:19:01;;;;;;;19.83;16.20;;;16.00;99.00;;;16.58;100.00;100538.22;5027266;28;20425;-78
2022/04/14 01:21:33;;;;;;;26.90;18.48;;;16.00;99.10;;;16.61;100.00;100542.50;5027164;28;20033;-78
2022/04/14 01:24:02;;;;;;;21.83;17.08;;;15.90;98.90;;;16.56;100.00;100555.16;5013395;28;20050;-78
2022/04/14 01:26:30;;;;;;;21.70;17.70;;;15.90;98.80;;;16.60;100.00;100556.72;5030438;28;20045;-77
2022/04/14 01:28:57;;;;;;;24.67;18.20;;;15.90;98.80;;;16.52;100.00;100551.78;5028324;28;20627;-78
2022/04/14 01:31:24;;;;;;;26.00;17.92;;;16.10;99.40;;;16.55;100.00;100558.75;5027193;28;20042;-78
2022/04/14 01:33:51;;;;;;;21.42;18.95;;;15.90;99.40;;;16.54;100.00;100546.41;5027063;28;20037;-78
2022/04/14 01:36:19;;;;;;;24.40;19.63;;;15.90;99.30;;;16.51;100.00;100554.50;5031958;28;20044;-77
2022/04/14 01:38:47;;;;;;;20.13;17.98;;;17.00;99.70;;;16.49;100.00;100556.38;5013879;28;20076;-79
2022/04/14 01:41:14;;;;;;;24.17;20.35;;;16.20;99.20;;;16.45;100.00;100556.50;5011455;28;20046;-78
2022/04/14 01:43:43;;;;;;;23.70;19.00;;;15.80;99.40;;;16.43;100.00;100560.19;5027725;28;20050;-78
2022/04/14 01:46:10;;;;;;;28.75;21.10;;;15.80;99.30;;;16.45;100.00;100566.28;5028035;28;20045;-78
2022/04/14 01:48:38;;;;;;;23.85;19.10;;;15.80;99.40;;;16.40;100.00;100562.97;5028608;28;20050;-79
2022/04/14 01:51:06;;;;;;;21.55;19.23;;;15.80;99.70;;;16.42;100.00;100567.25;5045681;28;20045;-78
2022/04/14 01:53:33;;;;;;;27.90;21.33;;;15.80;99.80;;;16.46;100.00;100568.00;5031609;28;20061;-78
2022/04/14 01:56:00;;;;;;;24.70;20.70;;;15.80;99.50;;;16.43;100.00;100571.66;5031844;28;20056;-77
2022/04/14 01:58:27;;;;;;;26.25;22.08;;;15.80;99.20;;;16.40;100.00;100579.75;5033839;28;20044;-78
2022/04/14 02:00:54;;;;;;;33.08;21.52;;;15.90;99.80;;;16.36;100.00;100578.19;5000199;28;20041;-78
2022/04/14 02:03:21;;;;;;;27.95;23.08;;;15.70;99.80;;;16.32;100.00;100581.91;5048348;28;20268;-78
2022/04/14 02:05:48;;;;;;;24.23;21.08;;;15.70;99.80;;;16.36;100.00;100582.59;4999808;28;20397;-78
2022/04/14 02:08:15;;;;;;;28.15;21.98;;;15.70;99.90;;;16.26;100.00;100572.41;5034429;28;20157;-79
2022/04/14 02:10:43;;;;;;;31.38;24.02;;;15.70;99.90;;;16.34;100.00;100572.06;5032660;28;20051;-78
2022/04/14 02:13:10;;;;;;;28.50;23.38;;;15.70;99.70;;;16.27;100.00;100579.44;5019160;28;20045;-78
2022/04/14 02:15:37;;;;;;;26.35;22.70;;;15.70;99.90;;;16.22;100.00;100576.13;5036409;28;20079;-78
2022/04/14 02:18:04;;;;;;;24.90;21.85;;;15.60;99.90;;;16.20;100.00;100579.78;5035493;28;20054;-79
2022/04/14 02:20:31;;;;;;;27.85;24.02;;;15.60;99.90;;;16.16;100.00;100581.72;5017885;28;20049;-78
2022/04/14 02:22:58;;;;;;;29.00;22.17;;;15.60;99.90;;;16.14;100.00;100586.22;5037168;28;20091;-78
2022/04/14 02:25:26;;;;;;;28.50;23.52;;;16.70;99.90;;;16.18;100.00;100587.81;5037107;28;20047;-77
2022/04/14 02:27:53;;;;;;;27.35;24.17;;;15.60;99.90;;;16.18;100.00;100592.28;5034927;28;20045;-77
2022/04/14 02:30:20;;;;;;;29.27;24.30;;;15.60;99.90;;;16.18;100.00;100586.97;5035090;28;20072;-77
2022/04/14 02:32:47;;;;;;;27.38;22.00;;;15.60;99.90;;;16.12;100.00;100593.41;5002051;28;20057;-77
2022/04/14 02:35:15;;;;;;;34.53;26.67;;;15.60;99.90;;;16.11;100.00;100587.22;5034575;28;20144;-78
2022/04/14 02:37:42;;;;;;;31.83;24.60;;;15.60;99.90;;;16.06;100.00;100593.66;5035435;28;20037;-78
2022/04/14 02:40:09;;;;;;;30.65;24.55;;;15.50;99.90;;;16.09;100.00;100593.53;5034729;28;20052;-78
2022/04/14 02:42:36;;;;;;;27.73;24.10;;;15.50;99.90;;;16.08;100.00;100587.34;5002871;28;20045;-79
2022/04/14 02:45:04;;;;;;;32.40;24.35;;;15.50;99.90;;;16.12;100.00;100586.28;5036096;28;20056;-78
2022/04/14 02:47:31;;;;;;;31.88;25.35;;;15.50;99.90;;;16.08;100.00;100599.75;5036104;28;20056;-79
2022/04/14 02:49:58;;;;;;;30.67;25.27;;;15.50;99.90;;;16.09;100.00;100591.72;5020323;28;20037;-79
2022/04/14 02:52:25;;;;;;;36.88;27.00;;;15.60;99.90;;;16.19;100.00;100592.19;5035995;28;20048;-79
2022/04/14 02:54:52;;;;;;;36.60;26.92;;;15.50;99.90;;;16.10;100.00;100598.75;5036379;28;20045;-79
2022/04/14 02:57:23;;;;;;;29.70;26.27;;;15.70;99.90;;;16.10;100.00;100595.25;5035528;28;20119;-78
2022/04/14 02:59:50;;;;;;;34.47;26.98;;;15.40;99.90;;;16.10;100.00;100597.91;5019075;28;20152;-79
2022/04/14 03:02:18;;;;;;;32.75;26.13;;;15.50;99.90;;;15.99;100.00;100598.34;5035273;28;20671;-79
2022/04/14 03:04:45;;;;;;;31.17;27.10;;;15.70;99.90;;;16.08;100.00;100605.06;5017539;28;20045;-77
2022/04/14 03:07:12;;;;;;;28.70;24.98;;;15.50;99.90;;;16.01;100.00;100597.38;5032371;28;20050;-78
2022/04/14 03:09:39;;;;;;;35.30;26.75;;;15.40;99.90;;;16.04;100.00;100598.16;5030976;28;20144;-77
2022/04/14 03:12:07;;;;;;;37.08;29.10;;;15.40;99.90;;;16.05;100.00;100600.78;5015562;28;20054;-77
2022/04/14 03:14:34;;;;;;;32.95;27.38;;;15.40;99.90;;;15.97;100.00;100606.41;5031913;28;20042;-79
2022/04/14 03:17:01;;;;;;;33.67;26.27;;;15.30;99.90;;;15.91;100.00;100608.47;5034499;28;20053;-79
2022/04/14 03:19:28;;;;;;;33.00;28.38;;;15.30;99.90;;;15.89;100.00;100603.19;5047284;28;20046;-77
2022/04/14 03:21:55;;;;;;;32.90;26.58;;;16.00;99.90;;;15.90;100.00;100604.94;5029918;28;20496;-78
2022/04/14 03:24:22;;;;;;;32.70;26.83;;;15.30;99.90;;;15.86;100.00;100608.63;5033543;28;20418;-79
2022/04/14 03:26:49;;;;;;;29.83;25.75;;;15.20;99.90;;;15.84;100.00;100607.81;5034911;28;20052;-79
2022/04/14 03:29:16;;;;;;;29.85;26.08;;;15.20;99.90;;;15.85;100.00;100605.13;5017520;28;20049;-78
2022/04/14 03:31:43;;;;;;;32.72;27.05;;;15.20;99.90;;;15.77;100.00;100604.56;5035857;28;20038;-79
2022/04/14 03:34:10;;;;;;;31.63;25.30;;;15.20;99.90;;;15.76;100.00;100604.59;5016767;28;20077;-78
2022/04/14 03:36:37;;;;;;;34.55;27.58;;;15.10;99.90;;;15.64;100.00;100595.38;5018368;28;20060;-79
2022/04/14 03:39:04;;;;;;;29.73;25.17;;;15.10;99.90;;;15.62;100.00;100592.81;5016751;28;20053;-78
2022/04/14 03:41:31;;;;;;;30.02;26.77;;;15.10;99.90;;;15.55;100.00;100602.81;5015590;28;20418;-78
2022/04/14 03:43:58;;;;;;;31.80;27.23;;;15.00;99.90;;;15.55;100.00;100601.94;5019370;28;20049;-77
2022/04/14 03:46:25;;;;;;;33.40;25.52;;;15.00;99.90;;;15.50;100.00;100599.47;5001780;28;20120;-78
2022/04/14 03:48:56;;;;;;;28.67;24.92;;;14.90;99.90;;;15.54;100.00;100601.09;5000686;28;20049;-78
2022/04/14 03:51:23;;;;;;;30.02;25.92;;;14.90;99.90;;;15.49;100.00;100604.84;5017987;28;20600;-78
2022/04/14 03:53:50;;;;;;;30.77;26.23;;;14.90;99.90;;;15.41;100.00;100608.66;5016778;28;20060;-78
2022/04/14 03:56:17;;;;;;;31.60;26.95;;;14.80;99.90;;;15.31;100.00;100613.47;5030503;28;20041;-77
2022/04/14 03:58:44;;;;;;;28.92;24.67;;;14.80;99.90;;;15.37;100.00;100619.44;5030448;28;20045;-77
2022/04/14 04:01:11;;;;;;;34.38;26.55;;;14.80;99.90;;;15.45;100.00;100623.53;5030634;28;20053;-78
2022/04/14 04:03:38;;;;;;;33.60;26.13;;;14.80;99.90;;;15.44;100.00;100628.88;5014088;28;20406;-78
2022/04/14 04:06:05;;;;;;;30.35;26.25;;;14.80;99.90;;;15.41;100.00;100629.88;5031321;28;20574;-77
2022/04/14 04:08:32;;;;;;;33.08;28.52;;;15.40;99.90;;;15.38;100.00;100629.16;5014181;28;20060;-77
2022/04/14 04:10:59;;;;;;;36.13;26.50;;;14.80;99.90;;;15.32;100.00;100623.16;5013806;28;20041;-77
2022/04/14 04:13:26;;;;;;;31.42;27.23;;;14.80;99.90;;;15.27;100.00;100626.91;5030858;28;20052;-77
2022/04/14 04:15:53;;;;;;;33.47;26.63;;;14.70;99.90;;;15.29;100.00;100625.06;5029927;28;20045;-77
2022/04/14 04:18:21;;;;;;;34.08;26.92;;;14.70;99.90;;;15.22;100.00;100632.41;5029876;28;20099;-78
2022/04/14 04:20:48;;;;;;;38.67;28.67;;;14.70;99.90;;;15.26;100.00;100628.72;5030649;28;20131;-77
2022/04/14 04:23:15;;;;;;;34.95;27.63;;;14.70;99.90;;;15.28;100.00;100633.94;5029287;28;20041;-77
2022/04/14 04:25:42;;;;;;;39.88;29.70;;;14.70;99.90;;;15.26;100.00;100639.31;5040365;28;20049;-77
2022/04/14 04:28:09;;;;;;;36.40;28.52;;;14.70;99.90;;;15.23;100.00;100639.44;5010334;28;20129;-77
2022/04/14 04:30:36;;;;;;;32.22;28.23;;;14.60;99.90;;;15.22;100.00;100645.66;5025161;28;20048;-78
2022/04/14 04:33:05;;;;;;;33.72;28.92;;;14.70;99.90;;;15.24;100.00;100642.94;5008678;28;20058;-72
2022/04/14 04:35:32;;;;;;;34.08;29.17;;;15.70;99.90;;;15.25;100.00;100656.13;5023056;28;20137;-72
2022/04/14 04:37:59;;;;;;;33.88;28.02;;;14.60;99.90;;;15.28;100.00;100657.78;5008655;28;20038;-72
2022/04/14 04:40:26;;;;;;;33.75;28.20;;;14.60;99.90;;;15.13;100.00;100659.25;5007883;28;20159;-72
2022/04/14 04:42:53;;;;;;;38.60;28.15;;;14.60;99.90;;;15.10;100.00;100660.22;5008922;28;20054;-72
2022/04/14 04:45:20;;;;;;;36.72;29.30;;;14.60;99.90;;;14.91;100.00;100669.81;5008847;28;20045;-75
2022/04/14 04:47:47;;;;;;;43.22;31.20;;;14.50;99.90;;;14.86;100.00;100665.56;5012026;28;20057;-79
2022/04/14 04:50:14;;;;;;;36.25;27.83;;;14.40;99.90;;;14.96;100.00;100674.00;5028569;28;20046;-78
2022/04/14 04:52:44;;;;;;;33.15;26.80;;;14.40;99.90;;;14.96;100.00;100678.44;5029271;28;20513;-78
2022/04/14 04:55:29;;;;;;;30.70;26.60;;;14.40;99.90;;;15.00;100.00;100680.06;5042926;28;20017;-79
2022/04/14 04:57:57;;;;;;;36.80;27.25;;;14.40;99.90;;;14.97;100.00;100681.03;5062164;28;20045;-78
2022/04/14 05:00:26;;;;;;;33.20;26.75;;;14.30;99.90;;;14.97;100.00;100683.69;5036250;28;20053;-78
2022/04/14 05:02:55;;;;;;;31.67;27.20;;;14.40;99.90;;;14.95;100.00;100682.88;5054428;28;20040;-78
2022/04/14 05:05:24;;;;;;;35.63;26.70;;;14.40;99.90;;;14.94;100.00;100675.84;5052114;28;20064;-78
2022/04/14 05:07:51;;;;;;;35.42;26.90;;;14.40;99.90;;;14.96;100.00;100683.72;5018927;28;20051;-79
2022/04/14 05:10:21;;;;;;;33.20;28.05;;;14.60;99.90;;;14.98;100.00;100693.38;5050663;28;20051;-78
2022/04/14 05:12:48;;;;;;;35.40;27.67;;;14.30;99.90;;;14.92;100.00;100698.91;5051507;28;20053;-79
2022/04/14 05:15:15;;;;;;;32.47;26.45;;;14.60;99.90;;;14.92;100.00;100696.25;5039128;28;20076;-79
2022/04/14 05:17:42;;;;;;;33.45;27.85;;;15.70;99.90;;;14.94;100.00;100693.53;5013593;28;20052;-79
2022/04/14 05:20:10;;;;;;;36.25;28.30;;;14.40;99.90;;;14.90;100.00;100703.38;5013162;28;20050;-78
2022/04/14 05:22:37;;;;;;;32.92;29.23;;;14.30;99.90;;;14.88;100.00;100705.22;5031554;28;20049;-79
2022/04/14 05:25:04;;;;;;;40.03;29.02;;;14.30;99.90;;;14.98;100.00;100711.03;5030002;28;20406;-79
2022/04/14 05:27:31;;;;;;;30.75;27.40;;;14.30;99.90;;;14.99;100.00;100707.50;5028659;28;20053;-80
2022/04/14 05:29:58;;;;;;;37.58;28.15;;;14.40;99.90;;;14.99;100.00;100707.50;5012075;28;20049;-78
2022/04/14 05:32:25;;;;;;;30.83;25.20;;;14.40;99.90;;;15.06;100.00;100710.75;5014189;28;20049;-77
2022/04/14 05:34:55;;;;;;;35.50;27.48;;;14.40;99.90;;;15.08;100.00;100719.53;5048565;28;20072;-78
2022/04/14 05:37:22;;;;;;;35.22;28.42;;;15.10;99.90;;;15.19;100.00;100716.47;5030919;28;20041;-78
2022/04/14 05:39:52;;;;;;;34.45;27.58;;;14.50;99.90;;;15.24;100.00;100714.50;5013326;28;20049;-79
2022/04/14 05:42:19;;;;;;;33.67;27.50;;;14.60;99.90;;;15.24;100.00;100715.38;5030383;28;20064;-78
2022/04/14 05:44:47;;;;;;;35.58;26.95;;;14.60;99.90;;;15.30;100.00;100711.63;5030903;28;20038;-80
2022/04/14 05:47:23;;;;;;;33.83;27.58;;;14.60;99.90;;;15.37;100.00;100717.53;5029954;28;20056;-79
2022/04/14 05:49:53;;;;;;;36.65;29.10;;;14.70;99.90;;;15.50;100.00;100721.44;5029775;28;20049;-79
2022/04/14 05:52:21;;;;;;;;;;;14.70;99.90;;;15.53;100.00;100720.47;5013536;28;20072;-79
2022/04/14 05:54:49;;;;;;;31.58;25.33;;;14.70;99.90;;;15.52;100.00;100718.75;5045775;28;19921;-78
2022/04/14 05:57:17;;;;;;;38.33;29.13;;;14.80;99.90;;;15.56;100.00;100721.22;5029318;28;20560;-78
2022/04/14 05:59:46;;;;;;;35.97;28.02;;;15.40;99.90;;;15.56;100.00;100715.03;5028568;28;20037;-78
2022/04/14 06:02:13;;;;;;;34.80;27.13;;;16.20;99.90;;;15.59;100.00;100714.91;5028914;28;20041;-78
2022/04/14 06:04:41;;;;;;;32.42;27.77;;;15.10;99.90;;;15.65;100.00;100721.75;5029317;28;20045;-78
2022/04/14 06:07:07;;;;;;;35.38;26.92;;;15.00;99.90;;;15.68;100.00;100724.28;5032073;28;20117;-79
2022/04/14 06:09:35;;;;;;;33.80;26.08;;;15.00;99.90;;;15.70;100.00;100728.63;5012203;28;20053;-79
2022/04/14 06:12:02;;;;;;;33.05;26.77;;;15.00;99.90;;;15.76;100.00;100722.22;5014571;28;20045;-78
2022/04/14 06:14:47;;;;;;;36.20;26.75;;;15.10;99.90;;;15.69;100.00;100718.94;5063110;28;20046;-79
2022/04/14 06:17:14;;;;;;;35.58;26.25;;;15.10;99.90;;;15.73;100.00;100731.16;5030023;28;20120;-78
2022/04/14 06:19:41;;;;;;;32.00;25.75;;;15.50;99.90;;;15.72;100.00;100731.22;5013229;28;20053;-79
2022/04/14 06:22:08;;;;;;;32.05;26.95;;;15.10;99.90;;;15.67;100.00;100726.09;5032605;28;20064;-78
2022/04/14 06:24:35;;;;;;;30.95;26.20;;;15.20;99.90;;;15.74;100.00;100719.59;5033401;28;20132;-79
2022/04/14 06:27:03;;;;;;;33.70;26.02;;;15.20;99.90;;;15.82;100.00;100729.91;5017430;28;20145;-78
2022/04/14 06:29:30;;;;;;;31.58;24.50;;;15.20;99.90;;;15.84;100.00;100717.47;5016155;28;20041;-79
2022/04/14 06:31:57;;;;;;;34.42;24.83;;;15.20;99.90;;;15.85;100.00;100721.84;5013215;28;20395;-78
2022/04/14 06:34:24;;;;;;;30.17;25.42;;;15.20;99.90;;;15.93;100.00;100724.22;5016668;28;20136;-78
2022/04/14 06:36:51;;;;;;;34.30;24.55;;;16.60;99.90;;;15.98;100.00;100730.19;5034944;28;20506;-79
2022/04/14 06:39:18;;;;;;;31.05;24.45;;;15.20;99.90;;;15.97;100.00;100722.28;5001737;28;20500;-78
2022/04/14 06:41:45;;;;;;;27.23;23.23;;;15.30;99.90;;;15.97;100.00;100727.59;5054107;28;20053;-79
2022/04/14 06:44:12;;;;;;;29.67;24.15;;;15.30;99.90;;;16.09;100.00;100737.72;5036334;28;20079;-79
2022/04/14 06:46:39;;;;;;;28.02;24.85;;;15.50;99.90;;;16.12;100.00;100734.94;5036947;28;20738;-78
2022/04/14 06:49:07;;;;;;;32.22;24.38;;;15.40;99.90;;;16.20;100.00;100737.25;5034727;28;20045;-79
2022/04/14 06:51:34;;;;;;;29.25;23.85;;;15.80;99.90;;;16.30;100.00;100740.38;5020275;28;20049;-79
2022/04/14 06:54:01;;;;;;;27.00;22.48;;;15.50;99.90;;;16.29;100.00;100730.69;5015859;28;20443;-78
2022/04/14 06:56:28;;;;;;;32.22;22.98;;;15.60;99.90;;;16.34;100.00;100733.16;5018495;28;20042;-79
2022/04/14 06:58:55;;;;;;;28.90;23.35;;;15.70;99.90;;;16.41;100.00;100739.97;5021757;28;20525;-78
2022/04/14 07:01:23;;;;;;;29.55;22.35;;;15.70;99.90;;;16.43;100.00;100746.91;5024961;28;20065;-79
2022/04/14 07:03:50;;;;;;;29.45;23.92;;;15.70;99.90;;;16.53;100.00;100742.06;5027613;28;20559;-79
2022/04/14 07:06:17;;;;;;;28.73;22.80;;;15.90;99.90;;;16.57;100.00;100741.03;5037334;28;20045;-81
2022/04/14 07:08:44;;;;;;;26.33;21.33;;;15.80;99.90;;;16.58;100.00;100736.56;5031567;28;20756;-79
2022/04/14 07:11:12;;;;;;;28.02;22.58;;;15.90;99.90;;;16.68;100.00;100743.22;5033529;28;20029;-80
2022/04/14 07:13:39;;;;;;;28.60;21.80;;;15.90;99.90;;;16.75;100.00;100741.16;5032084;28;20044;-77
2022/04/14 07:16:07;;;;;;;29.70;23.48;;;16.00;99.90;;;16.87;100.00;100747.72;5032526;28;20109;-78
2022/04/14 07:18:34;;;;;;;29.35;22.73;;;16.80;99.90;;;16.86;100.00;100745.97;5034631;28;20064;-78
2022/04/14 07:21:01;;;;;;;27.40;22.00;;;16.10;99.90;;;16.91;100.00;100749.28;5028440;28;20074;-77
2022/04/14 07:23:28;;;;;;;28.42;21.38;;;16.20;99.90;;;16.97;100.00;100750.81;5013039;28;20629;-77
2022/04/14 07:25:55;;;;;;;25.13;21.67;;;16.20;99.90;;;17.12;100.00;100754.63;5029614;28;20138;-77
2022/04/14 07:28:22;;;;;;;24.85;20.33;;;16.30;99.90;;;17.27;100.00;100755.69;5030866;28;20405;-77
2022/04/14 07:30:55;;;;;;;25.70;20.55;;;16.40;99.90;;;17.36;100.00;100763.28;5030133;28;20053;-77
2022/04/14 07:33:25;;;;;;;27.05;20.60;;;16.50;99.90;;;17.50;100.00;100767.09;5033631;28;20128;-77
2022/04/14 07:35:53;;;;;;;;;;;16.60;99.90;;;17.64;100.00;100764.66;5033069;28;20295;-77
2022/04/14 07:38:20;;;;;;;24.77;19.75;;;16.70;99.90;;;17.68;100.00;100766.22;5031779;28;19925;-77
2022/04/14 07:40:47;;;;;;;29.92;21.48;;;16.80;99.90;;;17.74;100.00;100767.72;5015293;28;20453;-77
2022/04/14 07:43:15;;;;;;;26.10;19.75;;;16.90;99.90;;;17.77;100.00;100766.69;5033616;28;20045;-77
2022/04/14 07:45:45;;;;;;;28.67;21.17;;;17.00;99.70;;;18.00;100.00;100765.59;5039375;28;20108;-76
2022/04/14 07:48:13;;;;;;;25.58;18.52;;;17.10;99.80;;;18.16;100.00;100756.88;5037824;28;20049;-78
2022/04/14 07:50:40;;;;;;;20.73;18.58;;;17.20;99.70;;;18.14;100.00;100765.78;5038118;28;20050;-77
2022/04/14 07:53:07;;;;;;;21.27;17.92;;;17.30;99.20;;;18.21;100.00;100768.19;5021689;28;20417;-77
2022/04/14 07:55:35;;;;;;;22.23;19.83;;;17.40;99.10;;;18.33;100.00;100772.88;5032784;28;20076;-78
2022/04/14 07:58:07;;;;;;;22.30;18.77;;;17.50;99.10;;;18.48;100.00;100773.03;5049390;28;20049;-77
2022/04/14 08:00:40;;;;;;;25.90;19.35;;;17.60;99.20;;;18.56;100.00;100770.84;5015452;28;20144;-78
2022/04/14 08:03:09;;;;;;;22.95;17.17;;;17.70;98.90;;;18.54;100.00;100775.41;5030619;28;20273;-78
2022/04/14 08:05:46;;;;;;;22.00;18.92;;;17.90;99.00;;;18.63;100.00;100771.41;5031658;28;20509;-78
2022/04/14 08:08:16;;;;;;;22.48;18.67;;;17.80;98.70;;;18.62;100.00;100781.19;5032770;28;20080;-78
2022/04/14 08:10:46;;;;;;;21.27;18.00;;;17.80;98.60;;;18.66;100.00;100776.56;5032078;28;20442;-78
2022/04/14 08:13:15;;;;;;;;;;;17.90;98.60;;;18.67;100.00;100780.94;5018558;28;20049;-78
2022/04/14 08:15:43;;;;;;;23.42;18.20;;;17.90;98.50;;;18.71;100.00;100785.19;5031326;28;19921;-79
2022/04/14 08:18:10;;;;;;;23.90;18.02;;;18.00;98.50;;;18.65;100.00;100786.34;5031403;28;20053;-78
2022/04/14 08:20:41;;;;;;;19.40;16.63;;;18.00;98.30;;;18.79;100.00;100783.00;5018915;28;20183;-78
2022/04/14 08:23:14;;;;;;;22.02;17.63;;;18.00;98.30;;;18.99;100.00;100786.44;5014218;28;20065;-78
2022/04/14 08:25:42;;;;;;;19.85;17.75;;;18.10;98.40;;;19.19;100.00;100787.19;5015193;28;20050;-78
2022/04/14 08:28:29;;;;;;;24.48;17.92;;;18.20;98.30;;;19.14;100.00;100784.78;5038567;28;20049;-78
2022/04/14 08:30:56;;;;;;;21.88;17.63;;;18.40;98.00;;;19.11;100.00;100792.91;5010660;28;20050;-78
2022/04/14 08:33:24;;;;;;;21.20;18.48;;;18.40;97.80;;;19.21;100.00;100794.16;5010318;28;20104;-78
2022/04/14 08:35:55;;;;;;;22.40;18.65;;;18.50;97.80;;;19.19;100.00;100800.50;5025234;28;20055;-79
2022/04/14 08:38:22;;;;;;;24.52;18.02;;;18.50;97.70;;;19.33;100.00;100794.44;5029475;28;20715;-80
2022/04/14 08:41:01;;;;;;;18.67;16.17;;;18.50;97.80;;;19.40;100.00;100796.69;5029381;28;20104;-77
2022/04/14 08:44:06;;;;;;;22.27;16.95;;;18.60;97.50;;;19.31;100.00;100799.00;5033418;28;20057;-73
2022/04/14 08:46:39;;;;;;;23.60;18.05;;;18.70;97.40;;;19.31;100.00;100799.00;5033684;28;20042;-73
2022/04/14 08:49:24;;;;;;;20.45;18.13;;;18.80;97.20;;;19.41;100.00;100800.22;5029001;28;20061;-74
2022/04/14 08:51:52;;;;;;;25.25;18.90;;;18.80;97.20;;;19.52;100.00;100802.31;5026466;28;20045;-74
2022/04/14 08:54:21;;;;;;;25.05;19.48;;;18.80;97.40;;;19.61;100.00;100812.47;5026841;28;20041;-74
2022/04/14 08:56:49;;;;;;;28.10;20.20;;;18.90;97.10;;;19.55;100.00;100805.66;5009053;28;20506;-73
2022/04/14 08:59:20;;;;;;;22.73;18.80;;;18.90;97.10;;;19.68;100.00;100802.31;5041105;28;20045;-75
2022/04/14 09:01:47;;;;;;;21.38;18.17;;;19.00;97.30;;;19.80;100.00;100801.66;5026318;28;20406;-74
2022/04/14 09:04:15;;;;;;;24.80;18.60;;;19.00;97.10;;;19.91;100.00;100809.03;5031182;28;20065;-74
2022/04/14 09:06:43;;;;;;;29.05;19.75;;;19.10;96.90;;;19.97;100.00;100797.19;5032737;28;20072;-76
2022/04/14 09:09:13;;;;;;;24.30;20.15;;;19.20;96.50;;;19.76;100.00;100796.56;5025734;28;20037;-75
2022/04/14 09:11:40;;;;;;;28.17;20.65;;;19.20;96.60;;;19.73;100.00;100802.91;5043931;28;20128;-79
2022/04/14 09:14:10;;;;;;;21.83;18.48;;;19.20;96.70;;;19.88;100.00;100811.88;5015057;28;20052;-79
2022/04/14 09:16:38;;;;;;;23.50;17.35;;;19.20;96.70;;;20.07;100.00;100802.88;5013527;28;20085;-80
2022/04/14 09:19:05;;;;;;;20.73;18.15;;;19.20;96.80;;;19.81;100.00;100806.03;5013142;28;20053;-80
2022/04/14 09:21:35;;;;;;;21.10;18.77;;;19.30;96.50;;;19.66;100.00;100812.22;5002693;28;20152;-79
2022/04/14 09:24:55;;;;;;;27.25;19.70;;;19.20;96.50;;;19.77;100.00;100807.16;5027819;28;20067;-79
2022/04/14 09:27:29;;;;;;;20.85;18.65;;;19.10;96.70;;;19.74;100.00;100812.66;5016602;28;20038;-78
2022/04/14 09:30:07;;;;;;;22.35;19.77;;;19.20;96.70;;;19.66;100.00;100813.06;5031656;28;20599;-78
2022/04/14 09:32:42;;;;;;;26.60;20.05;;;19.10;96.70;;;19.83;100.00;100814.81;5032737;28;20477;-79
2022/04/14 09:35:20;;;;;;;23.77;21.00;;;19.10;96.80;;;19.76;100.00;100817.91;5026069;28;20495;-79
2022/04/14 09:38:13;;;;;;;20.10;17.83;;;19.10;96.80;;;19.88;100.00;100811.88;5046430;28;20057;-78
2022/04/14 09:40:41;;;;;;;22.25;19.95;;;19.10;96.60;;;19.91;100.00;100819.72;5026442;28;20119;-79
2022/04/14 09:43:08;;;;;;;22.95;19.88;;;19.20;96.50;;;20.05;100.00;100810.94;5007577;28;20049;-78
2022/04/14 09:45:35;;;;;;;30.30;19.15;;;19.30;96.40;;;19.87;100.00;100825.31;5009104;28;20073;-78
2022/04/14 09:48:12;;;;;;;28.15;20.17;;;19.30;96.30;;;19.84;100.00;100816.53;5025995;28;20041;-77
2022/04/14 09:50:43;;;;;;;24.35;20.00;;;19.20;96.20;;;19.92;100.00;100821.47;5027840;28;20103;-78
2022/04/14 09:53:15;;;;;;;24.80;20.10;;;19.30;96.20;;;19.78;100.00;100821.34;5029057;28;20409;-78
2022/04/14 09:55:57;;;;;;;22.92;20.48;;;19.20;96.40;;;19.70;100.00;100819.09;5029944;28;20045;-79
2022/04/14 09:58:26;;;;;;;25.65;19.88;;;19.20;96.30;;;19.77;100.00;100831.19;5016946;28;20391;-79
2022/04/14 10:00:58;;;;;;;22.45;20.08;;;19.10;96.50;;;19.55;100.00;100823.50;5031903;28;20080;-78
2022/04/14 10:03:30;;;;;;;23.30;20.00;;;19.20;96.60;;;19.68;100.00;100826.34;5045530;28;20113;-77